createdAt,value
2022-08-29T00:02:52.003Z,16.00
2022-08-29T00:05:54.102Z,15.94
2022-08-29T00:08:56.519Z,15.85
2022-08-29T00:11:58.586Z,15.64
2022-08-29T00:15:00.747Z,15.69
2022-08-29T00:18:02.895Z,15.58
2022-08-29T00:21:07.550Z,15.65
2022-08-29T00:24:09.627Z,15.74
2022-08-29T00:27:11.704Z,15.69
2022-08-29T00:30:14.384Z,15.73
2022-08-29T00:33:16.469Z,15.48
2022-08-29T00:36:18.548Z,15.51
2022-08-29T00:39:23.128Z,15.53
2022-08-29T00:42:25.838Z,15.43
2022-08-29T00:45:28.019Z,15.40
2022-08-29T00:48:30.146Z,15.31
2022-08-29T00:51:32.301Z,15.41
2022-08-29T00:54:34.618Z,15.35
2022-08-29T00:57:36.906Z,15.38
2022-08-29T01:00:39.122Z,15.28
2022-08-29T01:03:42.946Z,15.37
2022-08-29T01:06:45.339Z,15.69
2022-08-29T01:09:47.479Z,15.54
2022-08-29T01:12:49.758Z,15.69
2022-08-29T01:15:52.002Z,15.74
2022-08-29T01:18:57.062Z,15.65
2022-08-29T01:22:10.495Z,15.96
2022-08-29T01:25:16.970Z,16.03
2022-08-29T01:28:28.759Z,15.74
2022-08-29T01:31:56.207Z,15.83
2022-08-29T01:34:59.698Z,16.18
2022-08-29T01:38:01.772Z,16.00
2022-08-29T01:41:03.971Z,16.22
2022-08-29T01:44:11.979Z,16.08
2022-08-29T01:47:14.108Z,16.00
2022-08-29T01:50:17.679Z,15.97
2022-08-29T01:53:19.760Z,16.01
2022-08-29T01:56:28.235Z,15.77
2022-08-29T01:59:31.024Z,16.17
2022-08-29T02:02:34.137Z,16.14
2022-08-29T02:05:36.799Z,16.37
2022-08-29T02:08:40.175Z,16.59
2022-08-29T02:11:42.267Z,16.64
2022-08-29T02:14:44.539Z,16.65
2022-08-29T02:17:48.443Z,16.52
2022-08-29T02:20:50.705Z,16.66
2022-08-29T02:23:54.118Z,16.38
2022-08-29T02:26:56.691Z,16.30
2022-08-29T02:29:59.505Z,16.40
2022-08-29T02:33:01.595Z,16.35
2022-08-29T02:36:07.527Z,16.33
2022-08-29T02:39:10.107Z,16.34
2022-08-29T02:42:13.002Z,16.41
2022-08-29T02:45:15.179Z,16.20
2022-08-29T02:48:17.950Z,16.16
2022-08-29T02:51:27.723Z,16.17
2022-08-29T02:54:29.858Z,16.23
2022-08-29T02:57:31.949Z,16.15
2022-08-29T03:00:35.757Z,16.11
2022-08-29T03:03:38.007Z,16.26
2022-08-29T03:06:40.085Z,16.18
2022-08-29T03:09:42.380Z,16.17
2022-08-29T03:12:44.855Z,16.16
2022-08-29T03:15:47.783Z,16.27
2022-08-29T03:18:50.100Z,16.07
2022-08-29T03:21:52.210Z,16.44
2022-08-29T03:24:54.303Z,16.02
2022-08-29T03:27:56.951Z,16.18
2022-08-29T03:30:59.073Z,16.30
2022-08-29T03:34:01.215Z,16.13
2022-08-29T03:37:03.356Z,16.00
2022-08-29T03:40:06.392Z,16.14
2022-08-29T03:43:09.601Z,16.27
2022-08-29T03:46:11.719Z,16.04
2022-08-29T03:49:15.743Z,16.23
2022-08-29T03:52:17.874Z,16.10
2022-08-29T03:55:20.337Z,15.97
2022-08-29T03:58:22.415Z,15.95
2022-08-29T04:01:28.390Z,15.80
2022-08-29T04:04:49.375Z,15.72
2022-08-29T04:07:56.125Z,15.97
2022-08-29T04:10:58.286Z,15.87
2022-08-29T04:14:00.363Z,15.64
2022-08-29T04:17:04.281Z,16.09
2022-08-29T04:20:07.878Z,16.00
2022-08-29T04:23:12.645Z,15.91
2022-08-29T04:26:36.874Z,15.78
2022-08-29T04:29:39.402Z,15.62
2022-08-29T04:32:41.587Z,15.81
2022-08-29T04:35:43.706Z,15.94
2022-08-29T04:38:45.798Z,15.66
2022-08-29T04:41:47.895Z,15.42
2022-08-29T04:44:49.975Z,15.46
2022-08-29T04:47:52.162Z,15.64
2022-08-29T04:50:58.323Z,15.27
2022-08-29T04:54:00.435Z,15.40
2022-08-29T04:57:03.399Z,15.22
2022-08-29T05:00:13.916Z,15.33
2022-08-29T05:03:16.016Z,15.35
2022-08-29T05:06:19.746Z,15.20
2022-08-29T05:09:24.685Z,15.18
2022-08-29T05:12:28.873Z,15.14
2022-08-29T05:15:31.343Z,14.90
2022-08-29T05:18:33.725Z,14.87
2022-08-29T05:21:37.518Z,15.10
2022-08-29T05:24:39.677Z,15.03
2022-08-29T05:27:41.905Z,15.19
2022-08-29T05:30:44.231Z,15.08
2022-08-29T05:33:46.423Z,14.90
2022-08-29T05:36:48.577Z,15.09
2022-08-29T05:39:50.875Z,15.10
2022-08-29T05:42:53.027Z,15.20
2022-08-29T05:46:03.673Z,15.32
2022-08-29T05:49:05.976Z,15.31
2022-08-29T05:52:08.218Z,15.45
2022-08-29T05:55:11.115Z,15.45
2022-08-29T05:58:13.468Z,15.52
2022-08-29T06:01:22.331Z,15.65
2022-08-29T06:04:28.069Z,15.70
2022-08-29T06:07:31.391Z,16.10
2022-08-29T06:10:34.055Z,15.86
2022-08-29T06:13:36.243Z,16.16
2022-08-29T06:16:39.629Z,16.35
2022-08-29T06:19:42.562Z,16.48
2022-08-29T06:22:44.659Z,16.69
2022-08-29T06:25:54.819Z,16.71
2022-08-29T06:28:57.103Z,16.88
2022-08-29T06:31:59.452Z,16.51
2022-08-29T06:35:01.663Z,16.98
2022-08-29T06:38:03.902Z,16.80
2022-08-29T06:41:11.987Z,17.05
2022-08-29T06:44:14.743Z,17.39
2022-08-29T06:47:16.905Z,17.41
2022-08-29T06:50:19.090Z,17.34
2022-08-29T06:53:31.714Z,17.23
2022-08-29T06:56:37.076Z,17.56
2022-08-29T06:59:39.508Z,17.91
2022-08-29T07:02:42.200Z,17.67
2022-08-29T07:05:44.367Z,17.49
2022-08-29T07:08:55.147Z,17.78
2022-08-29T07:11:57.794Z,18.17
2022-08-29T07:14:59.947Z,17.92
2022-08-29T07:18:02.031Z,18.23
2022-08-29T07:21:08.595Z,18.26
2022-08-29T07:24:10.803Z,18.35
2022-08-29T07:27:13.631Z,18.33
2022-08-29T07:30:16.562Z,18.35
2022-08-29T07:33:18.645Z,18.02
2022-08-29T07:36:20.725Z,18.33
2022-08-29T07:39:23.098Z,18.25
2022-08-29T07:42:25.350Z,18.09
2022-08-29T07:45:27.436Z,18.47
2022-08-29T07:48:29.527Z,18.07
2022-08-29T07:51:31.678Z,18.15
2022-08-29T07:54:33.826Z,18.25
2022-08-29T07:57:39.669Z,17.98
2022-08-29T08:00:42.116Z,17.95
2022-08-29T08:03:44.286Z,17.79
2022-08-29T08:06:47.436Z,18.17
2022-08-29T08:09:49.572Z,18.15
2022-08-29T08:12:51.787Z,18.32
2022-08-29T08:15:55.507Z,18.08
2022-08-29T08:18:57.751Z,18.39
2022-08-29T08:21:59.947Z,18.67
2022-08-29T08:25:02.703Z,18.49
2022-08-29T08:28:04.920Z,18.35
2022-08-29T08:31:08.184Z,18.55
2022-08-29T08:34:10.338Z,18.86
2022-08-29T08:37:15.940Z,18.65
2022-08-29T08:40:28.144Z,18.80
2022-08-29T08:43:50.470Z,18.38
2022-08-29T08:46:58.490Z,18.58
2022-08-29T08:50:23.656Z,18.79
2022-08-29T08:53:28.465Z,19.22
2022-08-29T08:56:39.084Z,19.54
2022-08-29T08:59:44.096Z,18.95
2022-08-29T09:03:17.175Z,19.33
2022-08-29T09:06:55.751Z,19.05
2022-08-29T09:10:33.916Z,19.04
2022-08-29T09:14:18.146Z,18.99
2022-08-29T09:17:30.983Z,18.61
2022-08-29T09:20:39.670Z,18.31
2022-08-29T09:23:54.921Z,18.72
2022-08-29T09:26:57.057Z,19.05
2022-08-29T09:30:14.947Z,19.05
2022-08-29T09:33:17.314Z,18.94
2022-08-29T09:36:48.524Z,18.13
2022-08-29T09:39:59.927Z,18.12
2022-08-29T09:43:02.925Z,18.08
2022-08-29T09:46:11.287Z,17.91
2022-08-29T09:49:18.586Z,18.02
2022-08-29T09:52:24.389Z,18.49
2022-08-29T09:55:37.524Z,18.16
2022-08-29T09:58:41.678Z,18.32
2022-08-29T10:01:43.836Z,18.89
2022-08-29T10:04:49.706Z,18.59
2022-08-29T10:07:53.522Z,19.17
2022-08-29T10:11:21.263Z,18.99
2022-08-29T10:14:35.866Z,18.77
2022-08-29T10:18:05.985Z,18.84
2022-08-29T10:21:26.500Z,18.65
2022-08-29T10:24:43.781Z,18.74
2022-08-29T10:27:55.825Z,18.32
2022-08-29T10:31:08.799Z,18.11
2022-08-29T10:34:46.897Z,18.43
2022-08-29T10:38:04.026Z,18.54
2022-08-29T10:41:40.562Z,18.94
2022-08-29T10:45:09.710Z,19.28
2022-08-29T10:48:20.243Z,18.85
2022-08-29T10:51:50.554Z,17.20
2022-08-29T10:55:17.146Z,17.55
2022-08-29T10:58:59.547Z,18.11
2022-08-29T11:02:39.651Z,18.70
2022-08-29T11:05:49.270Z,18.66
2022-08-29T11:09:35.290Z,18.81
2022-08-29T11:13:05.658Z,18.67
2022-08-29T11:16:21.351Z,19.05
2022-08-29T11:19:47.192Z,19.89
2022-08-29T11:23:04.780Z,19.99
2022-08-29T11:26:27.029Z,19.92
2022-08-29T11:29:43.190Z,20.79
2022-08-29T11:33:19.409Z,20.82
2022-08-29T11:36:49.374Z,19.92
2022-08-29T11:40:02.777Z,19.81
2022-08-29T11:43:12.174Z,19.09
2022-08-29T11:46:15.149Z,19.79
2022-08-29T11:49:37.075Z,19.93
2022-08-29T11:52:39.142Z,19.46
2022-08-29T11:55:46.308Z,20.34
2022-08-29T11:58:50.091Z,21.20
2022-08-29T12:02:00.675Z,21.54
2022-08-29T12:05:17.709Z,21.16
2022-08-29T12:08:47.144Z,20.64
2022-08-29T12:12:13.214Z,20.80
2022-08-29T12:15:29.909Z,20.38
2022-08-29T12:18:36.708Z,20.51
2022-08-29T12:21:42.199Z,20.62
2022-08-29T12:24:44.393Z,20.96
2022-08-29T12:28:43.435Z,20.53
2022-08-29T12:32:27.339Z,20.74
2022-08-29T12:36:05.579Z,20.53
2022-08-29T12:39:23.414Z,20.21
2022-08-29T12:42:51.595Z,19.52
2022-08-29T12:45:53.999Z,19.90
2022-08-29T12:49:51.664Z,19.95
2022-08-29T12:53:26.241Z,19.90
2022-08-29T12:56:28.345Z,20.52
2022-08-29T12:59:30.563Z,20.78
2022-08-29T13:02:35.999Z,20.37
2022-08-29T13:05:39.651Z,20.81
2022-08-29T13:08:42.120Z,20.87
2022-08-29T13:11:44.256Z,20.39
2022-08-29T13:15:00.319Z,20.43
2022-08-29T13:18:02.481Z,20.64
2022-08-29T13:21:34.173Z,20.37
2022-08-29T13:24:36.261Z,20.25
2022-08-29T13:27:38.343Z,19.72
2022-08-29T13:30:40.419Z,19.71
2022-08-29T13:33:46.007Z,19.32
2022-08-29T13:37:01.403Z,19.62
2022-08-29T13:40:33.174Z,19.64
2022-08-29T13:43:41.876Z,20.21
2022-08-29T13:46:47.379Z,20.06
2022-08-29T13:49:50.120Z,20.60
2022-08-29T13:52:54.525Z,20.96
2022-08-29T13:55:57.012Z,22.30
2022-08-29T13:58:59.126Z,21.55
2022-08-29T14:02:10.215Z,21.11
2022-08-29T14:05:13.800Z,20.65
2022-08-29T14:08:16.258Z,20.08
2022-08-29T14:11:18.453Z,20.55
2022-08-29T14:14:20.528Z,20.46
2022-08-29T14:17:22.711Z,20.22
2022-08-29T14:20:25.207Z,20.37
2022-08-29T14:23:27.348Z,20.10
2022-08-29T14:26:29.436Z,19.99
2022-08-29T14:29:31.932Z,20.02
2022-08-29T14:32:34.123Z,19.94
2022-08-29T14:35:36.254Z,19.68
2022-08-29T14:38:44.571Z,19.71
2022-08-29T14:41:46.782Z,19.00
2022-08-29T14:44:48.919Z,19.51
2022-08-29T14:47:50.997Z,18.97
2022-08-29T14:50:53.058Z,19.42
2022-08-29T14:53:55.185Z,19.28
2022-08-29T14:56:57.302Z,19.39
2022-08-29T14:59:59.366Z,18.94
2022-08-29T15:03:01.655Z,19.27
2022-08-29T15:06:06.122Z,19.09
2022-08-29T15:09:08.254Z,18.95
2022-08-29T15:12:14.479Z,19.14
2022-08-29T15:15:16.586Z,19.88
2022-08-29T15:18:47.997Z,19.64
2022-08-29T15:21:41.070Z,20.59
2022-08-29T15:24:43.146Z,20.01
2022-08-29T15:27:46.896Z,20.56
2022-08-29T15:30:49.144Z,20.52
2022-08-29T15:33:51.362Z,20.26
2022-08-29T15:36:54.180Z,19.87
2022-08-29T15:39:56.460Z,20.95
2022-08-29T15:42:58.650Z,21.62
2022-08-29T15:46:00.820Z,19.71
2022-08-29T15:49:03.814Z,19.76
2022-08-29T15:52:06.020Z,19.92
2022-08-29T15:55:08.379Z,19.73
2022-08-29T15:58:10.486Z,23.07
2022-08-29T16:01:12.598Z,22.06
2022-08-29T16:04:15.988Z,21.00
2022-08-29T16:07:18.185Z,20.43
2022-08-29T16:10:20.406Z,20.56
2022-08-29T16:13:22.492Z,21.12
2022-08-29T16:16:25.190Z,21.72
2022-08-29T16:19:27.503Z,21.16
2022-08-29T16:22:29.682Z,21.83
2022-08-29T16:25:32.376Z,21.01
2022-08-29T16:28:35.037Z,20.19
2022-08-29T16:31:37.364Z,19.80
2022-08-29T16:34:39.490Z,19.76
2022-08-29T16:37:41.592Z,19.32
2022-08-29T16:40:43.792Z,18.67
2022-08-29T16:43:51.768Z,18.77
2022-08-29T16:46:54.135Z,18.42
2022-08-29T16:49:56.240Z,18.58
2022-08-29T16:52:58.354Z,18.44
2022-08-29T16:56:09.198Z,18.06
2022-08-29T16:59:12.547Z,17.79
2022-08-29T17:02:14.690Z,18.02
2022-08-29T17:05:18.431Z,17.50
2022-08-29T17:08:20.471Z,17.34
2022-08-29T17:11:22.559Z,17.74
2022-08-29T17:14:24.849Z,18.23
2022-08-29T17:17:27.104Z,18.47
2022-08-29T17:20:29.184Z,18.03
2022-08-29T17:23:31.772Z,17.54
2022-08-29T17:26:35.843Z,17.84
2022-08-29T17:29:41.889Z,17.69
2022-08-29T17:32:44.379Z,17.88
2022-08-29T17:35:46.864Z,17.56
2022-08-29T17:38:49.065Z,17.62
2022-08-29T17:41:51.863Z,17.99
2022-08-29T17:44:54.592Z,17.91
2022-08-29T17:47:56.690Z,18.21
2022-08-29T17:50:58.840Z,17.84
2022-08-29T17:54:00.932Z,17.95
2022-08-29T17:57:03.694Z,18.11
2022-08-29T18:00:07.279Z,18.01
2022-08-29T18:03:12.444Z,17.80
2022-08-29T18:06:15.317Z,17.81
2022-08-29T18:09:17.628Z,17.89
2022-08-29T18:12:20.332Z,17.60
2022-08-29T18:15:22.421Z,18.08
2022-08-29T18:18:25.762Z,18.18
2022-08-29T18:21:29.524Z,18.17
2022-08-29T18:24:31.611Z,18.63
2022-08-29T18:27:33.859Z,18.46
2022-08-29T18:30:36.076Z,18.30
2022-08-29T18:33:57.208Z,17.96
2022-08-29T18:37:00.278Z,17.85
2022-08-29T18:40:04.056Z,17.95
2022-08-29T18:43:07.319Z,17.97
2022-08-29T18:46:12.099Z,17.75
2022-08-29T18:49:14.940Z,17.81
2022-08-29T18:52:17.020Z,17.65
2022-08-29T18:55:19.399Z,17.63
2022-08-29T18:58:28.070Z,17.76
2022-08-29T19:01:30.471Z,17.67
2022-08-29T19:04:32.632Z,17.68
2022-08-29T19:07:34.986Z,17.70
2022-08-29T19:10:37.219Z,17.55
2022-08-29T19:13:44.083Z,17.85
2022-08-29T19:16:46.846Z,17.75
2022-08-29T19:20:10.460Z,17.68
2022-08-29T19:23:14.631Z,17.57
2022-08-29T19:26:28.395Z,17.62
2022-08-29T19:29:31.150Z,17.55
2022-08-29T19:32:33.235Z,17.63
2022-08-29T19:35:38.001Z,17.74
2022-08-29T19:38:41.723Z,17.38
2022-08-29T19:41:43.827Z,17.24
2022-08-29T19:44:45.943Z,17.26
2022-08-29T19:47:50.439Z,17.10
2022-08-29T19:50:53.972Z,17.38
2022-08-29T19:53:57.195Z,17.24
2022-08-29T19:56:59.568Z,17.48
2022-08-29T20:00:02.125Z,17.27
2022-08-29T20:03:14.931Z,17.38
2022-08-29T20:06:17.272Z,17.46
2022-08-29T20:12:26.367Z,17.12
2022-08-29T20:15:30.919Z,17.30
2022-08-29T20:18:33.786Z,17.22
2022-08-29T20:21:36.174Z,17.25
2022-08-29T20:24:38.251Z,17.36
2022-08-29T20:27:40.550Z,17.24
2022-08-29T20:30:42.885Z,17.03
2022-08-29T20:33:47.404Z,17.19
2022-08-29T20:37:08.075Z,16.91
2022-08-29T20:40:13.486Z,17.12
2022-08-29T20:43:16.408Z,16.73
2022-08-29T20:46:18.530Z,16.69
2022-08-29T20:49:23.239Z,16.62
2022-08-29T20:52:25.378Z,16.64
2022-08-29T20:55:27.487Z,16.23
2022-08-29T20:58:30.125Z,16.10
2022-08-29T21:01:33.313Z,16.41
2022-08-29T21:04:54.195Z,16.25
2022-08-29T21:07:56.384Z,16.63
2022-08-29T21:10:59.476Z,16.55
2022-08-29T21:14:01.614Z,16.29
2022-08-29T21:17:05.448Z,16.37
2022-08-29T21:20:08.710Z,16.37
2022-08-29T21:23:12.205Z,16.45
2022-08-29T21:26:14.935Z,16.34
2022-08-29T21:29:17.293Z,16.47
2022-08-29T21:32:22.405Z,16.26
2022-08-29T21:35:24.696Z,16.26
2022-08-29T21:38:29.101Z,16.15
2022-08-29T21:41:31.796Z,16.11
2022-08-29T21:44:34.035Z,15.96
2022-08-29T21:47:37.273Z,15.78
2022-08-29T21:50:39.381Z,15.99
2022-08-29T21:53:41.602Z,15.99
2022-08-29T21:56:44.164Z,15.90
2022-08-29T21:59:46.351Z,15.85
2022-08-29T22:02:48.734Z,15.77
2022-08-29T22:05:50.860Z,15.58
2022-08-29T22:08:54.747Z,15.74
2022-08-29T22:11:58.051Z,15.73
2022-08-29T22:15:18.979Z,15.50
2022-08-29T22:18:22.408Z,15.44
2022-08-29T22:21:24.782Z,15.41
2022-08-29T22:24:26.850Z,15.53
2022-08-29T22:27:28.943Z,15.46
2022-08-29T22:30:32.410Z,15.40
2022-08-29T22:33:35.434Z,15.71
2022-08-29T22:36:37.525Z,15.78
2022-08-29T22:39:39.602Z,15.72
2022-08-29T22:42:41.792Z,15.53
2022-08-29T22:45:44.016Z,15.76
2022-08-29T22:48:46.118Z,15.82
2022-08-29T22:51:49.053Z,15.61
2022-08-29T22:54:51.155Z,15.90
2022-08-29T22:57:53.249Z,15.69
2022-08-29T23:00:55.937Z,15.58
2022-08-29T23:03:58.787Z,15.64
2022-08-29T23:07:01.120Z,15.66
2022-08-29T23:10:04.175Z,15.58
2022-08-29T23:13:06.243Z,15.14
2022-08-29T23:16:08.415Z,15.35
2022-08-29T23:19:10.567Z,15.30
2022-08-29T23:22:12.828Z,15.10
2022-08-29T23:25:16.119Z,15.10
2022-08-29T23:28:18.229Z,15.20
2022-08-29T23:31:21.101Z,15.25
2022-08-29T23:34:24.086Z,14.96
2022-08-29T23:37:26.195Z,14.98
2022-08-29T23:40:28.482Z,14.72
2022-08-29T23:43:31.103Z,15.21
2022-08-29T23:46:39.007Z,15.18
2022-08-29T23:49:41.232Z,15.23
2022-08-29T23:52:43.879Z,14.94
2022-08-29T23:55:46.294Z,15.33
2022-08-29T23:58:48.397Z,15.28
